Time;durP1;ratioP1;P1;durP2;ratioP2;P2;SDS_P1;SDS_P2;PMS_P1;PMS_P2;Temp;Humidity;BMP_temperature;BMP_pressure;BME280_temperature;BME280_humidity;BME280_pressure;Samples;Min_cycle;Max_cycle;Signal;HPM_P1;HPM_P2
2021/10/27 00:00:42;;;;;;;10.30;8.77;;;7.00;99.90;;;;;;5016031;28;20294;-78
2021/10/27 00:03:08;;;;;;;10.90;9.17;;;7.10;99.90;;;;;;5017631;28;20676;-78
2021/10/27 00:05:34;;;;;;;14.23;9.50;;;7.00;99.90;;;;;;5002217;28;20203;-78
2021/10/27 00:07:59;;;;;;;9.80;8.80;;;7.00;99.90;;;;;;5017207;28;20182;-77
2021/10/27 00:10:25;;;;;;;12.00;9.40;;;7.00;99.90;;;;;;5017572;28;20199;-79
2021/10/27 00:12:52;;;;;;;10.23;8.30;;;7.00;99.90;;;;;;5017177;28;20202;-78
2021/10/27 00:15:18;;;;;;;10.37;9.27;;;7.00;99.90;;;;;;5017356;28;20660;-78
2021/10/27 00:17:43;;;;;;;10.60;9.50;;;7.00;99.90;;;;;;5015896;28;20309;-78
2021/10/27 00:20:10;;;;;;;14.07;9.60;;;7.00;99.90;;;;;;5016898;28;20242;-78
2021/10/27 00:22:37;;;;;;;9.73;8.93;;;7.00;99.90;;;;;;5017109;28;20214;-77
2021/10/27 00:25:02;;;;;;;9.87;9.00;;;7.00;99.90;;;;;;5016964;28;20229;-79
2021/10/27 00:27:28;;;;;;;9.97;9.07;;;7.00;99.90;;;;;;5015686;28;20717;-78
2021/10/27 00:29:54;;;;;;;10.37;9.33;;;7.00;99.90;;;;;;5016652;28;20277;-77
2021/10/27 00:32:19;;;;;;;9.70;8.80;;;7.00;99.90;;;;;;5017331;28;20175;-77
2021/10/27 00:34:45;;;;;;;9.57;8.77;;;7.00;99.90;;;;;;5016474;28;20179;-78
2021/10/27 00:37:12;;;;;;;10.77;9.13;;;7.10;99.90;;;;;;5015832;28;20206;-78
2021/10/27 00:39:37;;;;;;;10.40;9.33;;;7.00;99.90;;;;;;5016082;28;20203;-78
2021/10/27 00:42:04;;;;;;;10.37;9.47;;;7.00;99.90;;;;;;5014972;28;21498;-77
2021/10/27 00:44:31;;;;;;;10.07;9.17;;;7.00;99.90;;;;;;5015977;28;20203;-78
2021/10/27 00:47:03;;;;;;;9.10;8.27;;;7.00;99.90;;;;;;5016430;28;20175;-78
2021/10/27 00:49:31;;;;;;;9.93;9.00;;;7.00;99.90;;;;;;5014643;28;20194;-78
2021/10/27 00:52:02;;;;;;;9.70;8.80;;;7.00;99.90;;;;;;5014440;28;20181;-79
2021/10/27 00:54:28;;;;;;;9.80;8.90;;;6.90;99.90;;;;;;4998485;28;20182;-78
2021/10/27 00:56:55;;;;;;;9.60;8.70;;;6.90;99.90;;;;;;5014000;28;20590;-77
2021/10/27 00:59:23;;;;;;;10.00;9.00;;;6.90;99.90;;;;;;5014285;28;20277;-78
2021/10/27 01:01:49;;;;;;;9.90;9.00;;;6.90;99.90;;;;;;5015727;28;20176;-78
2021/10/27 01:04:15;;;;;;;10.20;9.03;;;6.90;99.90;;;;;;5016277;28;20201;-78
2021/10/27 01:06:42;;;;;;;9.37;8.40;;;6.90;99.90;;;;;;5015740;28;20167;-78
2021/10/27 01:09:08;;;;;;;9.43;8.53;;;6.90;99.90;;;;;;5014659;28;20591;-78
2021/10/27 01:11:34;;;;;;;12.30;8.60;;;6.90;99.90;;;;;;5015840;28;20259;-78
2021/10/27 01:14:03;;;;;;;9.70;8.30;;;6.90;99.90;;;;;;5015249;28;20179;-77
2021/10/27 01:16:28;;;;;;;10.37;8.50;;;6.90;99.90;;;;;;5015570;28;20198;-76
2021/10/27 01:18:55;;;;;;;8.50;7.70;;;6.80;99.90;;;;;;5015691;28;20650;-77
2021/10/27 01:21:22;;;;;;;8.40;7.70;;;6.80;99.90;;;;;;5014157;28;20199;-78
2021/10/27 01:23:48;;;;;;;9.93;8.50;;;6.80;99.90;;;;;;5016088;28;20202;-78
2021/10/27 01:26:14;;;;;;;9.50;8.47;;;6.80;99.90;;;;;;5014330;28;20175;-77
2021/10/27 01:28:41;;;;;;;9.10;8.30;;;6.70;99.90;;;;;;5015250;28;20167;-77
2021/10/27 01:31:08;;;;;;;8.20;7.50;;;6.70;99.90;;;;;;5014852;28;20205;-78
2021/10/27 01:33:35;;;;;;;7.97;7.17;;;6.60;99.90;;;;;;5015031;28;20192;-78
2021/10/27 01:36:01;;;;;;;8.73;7.93;;;6.60;99.90;;;;;;5014249;28;20181;-78
2021/10/27 01:38:26;;;;;;;8.07;7.33;;;6.60;99.90;;;;;;5013844;28;20229;-78
2021/10/27 01:40:52;;;;;;;9.20;8.20;;;6.60;99.90;;;;;;5015441;28;20243;-77
2021/10/27 01:43:18;;;;;;;8.80;7.87;;;6.50;99.90;;;;;;5005014;28;20595;-77
2021/10/27 01:45:44;;;;;;;9.93;8.93;;;6.50;99.90;;;;;;5014186;28;20202;-78
2021/10/27 01:48:10;;;;;;;9.10;8.30;;;6.50;99.90;;;;;;5014116;28;20224;-77
2021/10/27 01:50:36;;;;;;;8.30;7.60;;;6.60;99.90;;;;;;5014835;28;20287;-78
2021/10/27 01:53:02;;;;;;;8.80;8.03;;;6.40;99.90;;;;;;5006410;28;20191;-79
2021/10/27 01:55:28;;;;;;;9.80;8.90;;;6.40;99.90;;;;;;5005201;28;20177;-77
2021/10/27 01:57:54;;;;;;;12.17;8.97;;;6.50;99.90;;;;;;5013449;28;20171;-77
2021/10/27 02:00:20;;;;;;;9.90;8.77;;;6.40;99.90;;;;;;5013414;28;20209;-77
2021/10/27 02:02:46;;;;;;;10.57;9.43;;;6.40;99.90;;;;;;5013239;28;20180;-77
2021/10/27 02:05:13;;;;;;;9.57;8.63;;;6.40;99.90;;;;;;5014666;28;20704;-77
2021/10/27 02:07:39;;;;;;;8.93;8.13;;;6.40;99.90;;;;;;4998215;28;20673;-78
2021/10/27 02:10:07;;;;;;;8.73;7.93;;;6.40;99.90;;;;;;5013871;28;20198;-77
2021/10/27 02:12:35;;;;;;;8.97;8.07;;;6.30;99.90;;;;;;5005613;28;20184;-78
2021/10/27 02:15:01;;;;;;;8.73;7.83;;;6.20;99.90;;;;;;4993713;28;20183;-80
2021/10/27 02:17:26;;;;;;;8.60;7.70;;;6.30;99.90;;;;;;5002051;28;20712;-79
2021/10/27 02:19:52;;;;;;;8.50;7.70;;;6.30;99.90;;;;;;5011059;28;20785;-79
2021/10/27 02:22:18;;;;;;;7.57;6.87;;;6.30;99.90;;;;;;5011528;28;20711;-78
2021/10/27 02:24:43;;;;;;;8.33;7.53;;;6.20;99.90;;;;;;5012647;28;20199;-78
2021/10/27 02:27:09;;;;;;;7.70;7.00;;;6.20;99.90;;;;;;5014631;28;20183;-78
2021/10/27 02:29:36;;;;;;;9.67;6.73;;;6.10;99.90;;;;;;5014124;28;20571;-77
2021/10/27 02:32:03;;;;;;;7.33;6.63;;;6.10;99.90;;;;;;5014798;28;20177;-78
2021/10/27 02:34:29;;;;;;;8.33;7.63;;;6.10;99.90;;;;;;5014358;28;20182;-77
2021/10/27 02:36:54;;;;;;;7.37;6.70;;;6.10;99.90;;;;;;5013428;28;20305;-77
2021/10/27 02:39:20;;;;;;;7.50;6.80;;;6.00;99.90;;;;;;5013171;28;20829;-77
2021/10/27 02:41:46;;;;;;;7.27;6.77;;;6.10;99.90;;;;;;5014661;28;20179;-78
2021/10/27 02:44:12;;;;;;;7.83;6.90;;;6.00;99.90;;;;;;5018331;28;20206;-77
2021/10/27 02:46:37;;;;;;;7.97;7.10;;;6.00;99.90;;;;;;5017252;28;20207;-78
2021/10/27 02:49:03;;;;;;;8.90;7.00;;;6.00;99.90;;;;;;5016625;28;20656;-77
2021/10/27 02:51:29;;;;;;;7.70;7.00;;;6.00;99.90;;;;;;5017668;28;20171;-77
2021/10/27 02:53:54;;;;;;;8.37;7.63;;;5.90;99.90;;;;;;4992978;28;20196;-77
2021/10/27 02:56:20;;;;;;;7.70;7.10;;;6.00;99.90;;;;;;5017844;28;20179;-77
2021/10/27 02:58:46;;;;;;;7.70;7.10;;;5.90;99.90;;;;;;5017734;28;20189;-78
2021/10/27 03:01:13;;;;;;;7.40;6.80;;;5.90;99.90;;;;;;5016138;28;20681;-77
2021/10/27 03:03:39;;;;;;;7.63;6.93;;;5.90;99.90;;;;;;5016489;28;20187;-77
2021/10/27 03:06:05;;;;;;;7.63;7.03;;;5.90;99.90;;;;;;5015884;28;20493;-79
2021/10/27 03:08:30;;;;;;;6.90;6.30;;;5.80;99.90;;;;;;5017354;28;20182;-78
2021/10/27 03:10:56;;;;;;;7.73;6.93;;;5.90;99.90;;;;;;4995259;28;20203;-78
2021/10/27 03:13:22;;;;;;;7.60;7.00;;;5.80;99.90;;;;;;5030013;28;20186;-77
2021/10/27 03:15:49;;;;;;;7.13;6.43;;;5.80;99.90;;;;;;4990031;28;20218;-79
2021/10/27 03:18:15;;;;;;;7.27;6.63;;;5.80;99.90;;;;;;4981548;28;20221;-77
2021/10/27 03:20:41;;;;;;;6.60;6.10;;;5.80;99.90;;;;;;4977809;28;20600;-77
2021/10/27 03:23:07;;;;;;;6.47;5.97;;;5.80;99.90;;;;;;4977111;28;20651;-78
2021/10/27 03:25:33;;;;;;;7.80;7.10;;;5.70;99.90;;;;;;5022207;23;20298;-78
2021/10/27 03:27:59;;;;;;;6.67;6.10;;;5.70;99.90;;;;;;4995631;28;20180;-79
2021/10/27 03:30:24;;;;;;;6.53;5.93;;;5.70;99.90;;;;;;5001208;28;20198;-79
2021/10/27 03:32:51;;;;;;;7.53;6.10;;;5.70;99.90;;;;;;4998818;28;20263;-79
2021/10/27 03:35:17;;;;;;;7.47;6.20;;;5.60;99.90;;;;;;4998555;28;20195;-78
2021/10/27 03:37:43;;;;;;;6.40;5.87;;;5.60;99.90;;;;;;5002189;28;20190;-78
2021/10/27 03:40:10;;;;;;;6.93;6.30;;;5.60;99.90;;;;;;4997565;28;20183;-80
2021/10/27 03:42:36;;;;;;;7.07;6.47;;;5.60;99.90;;;;;;4997871;28;20605;-79
2021/10/27 03:45:02;;;;;;;7.00;6.40;;;5.60;99.90;;;;;;4999036;28;20285;-78
2021/10/27 03:47:28;;;;;;;7.50;6.80;;;5.60;99.90;;;;;;4996031;28;20270;-79
2021/10/27 03:49:54;;;;;;;8.63;6.53;;;5.60;99.90;;;;;;4997894;28;20596;-79
2021/10/27 03:52:20;;;;;;;7.87;6.90;;;5.50;99.90;;;;;;4997510;28;20183;-78
2021/10/27 03:54:46;;;;;;;7.53;6.60;;;5.50;99.90;;;;;;4998574;28;20192;-79
2021/10/27 03:57:12;;;;;;;6.93;6.30;;;5.50;99.90;;;;;;4999177;28;20178;-78
2021/10/27 03:59:37;;;;;;;7.27;6.57;;;5.40;99.90;;;;;;4998538;28;20203;-78
2021/10/27 04:02:04;;;;;;;6.97;6.37;;;5.40;99.90;;;;;;4996490;28;20197;-79
2021/10/27 04:04:30;;;;;;;6.40;5.90;;;5.30;99.90;;;;;;4994332;28;20219;-78
2021/10/27 04:06:56;;;;;;;6.93;6.33;;;5.40;99.90;;;;;;5013134;28;20183;-78
2021/10/27 04:09:22;;;;;;;6.87;6.27;;;5.40;99.90;;;;;;4997102;28;20179;-80
2021/10/27 04:11:48;;;;;;;7.20;6.13;;;5.20;99.90;;;;;;4997054;28;20189;-79
2021/10/27 04:14:14;;;;;;;6.87;6.37;;;5.30;99.90;;;;;;4991236;28;20210;-78
2021/10/27 04:16:40;;;;;;;6.97;6.37;;;5.40;99.90;;;;;;5008727;28;20670;-78
2021/10/27 04:19:05;;;;;;;6.47;5.97;;;5.30;99.90;;;;;;4997634;28;20213;-78
2021/10/27 04:21:31;;;;;;;6.27;5.67;;;5.30;99.90;;;;;;4997087;28;20245;-78
2021/10/27 04:23:57;;;;;;;6.60;6.00;;;5.30;99.90;;;;;;4997376;28;20197;-77
2021/10/27 04:26:24;;;;;;;6.13;5.63;;;5.40;99.90;;;;;;4997677;28;20675;-78
2021/10/27 04:28:51;;;;;;;5.77;5.27;;;5.40;99.90;;;;;;4997129;28;20234;-80
2021/10/27 04:31:18;;;;;;;5.73;5.27;;;5.30;99.90;;;;;;4998500;28;20177;-78
2021/10/27 04:33:43;;;;;;;6.53;5.70;;;5.30;99.90;;;;;;4998087;28;20175;-77
2021/10/27 04:36:09;;;;;;;7.07;6.47;;;5.30;99.90;;;;;;4996488;28;20199;-79
2021/10/27 04:38:35;;;;;;;6.63;5.60;;;5.30;99.90;;;;;;4998192;28;20190;-79
2021/10/27 04:41:01;;;;;;;6.60;6.00;;;5.30;99.90;;;;;;4994393;28;20654;-78
2021/10/27 04:43:27;;;;;;;5.90;5.40;;;5.30;99.90;;;;;;4996969;28;20182;-78
2021/10/27 04:45:52;;;;;;;6.30;5.80;;;5.30;99.90;;;;;;4996723;28;20409;-79
2021/10/27 04:48:18;;;;;;;7.03;5.97;;;5.50;99.90;;;;;;4997166;28;20176;-78
2021/10/27 04:50:44;;;;;;;7.10;6.50;;;5.40;99.90;;;;;;4994388;28;20246;-78
2021/10/27 04:53:22;;;;;;;7.37;6.60;;;5.50;99.90;;;;;;4994952;28;20175;-77
2021/10/27 04:55:48;;;;;;;7.60;6.80;;;5.50;99.90;;;;;;4996114;28;20199;-78
2021/10/27 04:58:14;;;;;;;7.67;6.80;;;5.60;99.90;;;;;;4994097;28;20186;-78
2021/10/27 05:00:40;;;;;;;6.87;6.27;;;5.60;99.90;;;;;;4994058;28;20177;-78
2021/10/27 05:03:05;;;;;;;7.30;6.53;;;5.60;99.90;;;;;;4994293;28;20199;-79
2021/10/27 05:05:35;;;;;;;6.70;6.20;;;5.60;99.90;;;;;;5008684;28;20727;-77
2021/10/27 05:08:02;;;;;;;8.07;7.13;;;5.60;99.90;;;;;;4994496;28;20633;-77
2021/10/27 05:10:27;;;;;;;7.17;6.47;;;5.60;99.90;;;;;;4994439;28;20176;-78
2021/10/27 05:12:53;;;;;;;7.40;6.30;;;5.60;99.90;;;;;;4994537;28;20553;-78
2021/10/27 05:15:19;;;;;;;6.53;5.70;;;5.60;99.90;;;;;;4995313;28;20210;-78
2021/10/27 05:17:45;;;;;;;6.30;5.73;;;5.60;99.90;;;;;;4993997;28;20186;-77
2021/10/27 05:20:10;;;;;;;6.10;5.47;;;5.60;99.90;;;;;;4990902;28;20193;-78
2021/10/27 05:22:36;;;;;;;6.47;5.87;;;5.60;99.90;;;;;;4994934;28;20172;-77
2021/10/27 05:25:02;;;;;;;6.53;5.50;;;5.60;99.90;;;;;;4994088;28;20218;-78
2021/10/27 05:27:30;;;;;;;6.53;5.73;;;5.70;99.90;;;;;;4993799;28;20182;-81
2021/10/27 05:29:56;;;;;;;6.60;6.00;;;5.60;99.90;;;;;;5010531;28;20272;-77
2021/10/27 05:32:22;;;;;;;5.77;5.20;;;5.50;99.90;;;;;;4994079;28;20642;-76
2021/10/27 05:34:48;;;;;;;5.30;4.80;;;5.50;99.90;;;;;;4994312;28;20220;-77
2021/10/27 05:37:13;;;;;;;5.20;4.80;;;5.60;99.90;;;;;;4995760;28;20209;-78
2021/10/27 05:39:39;;;;;;;5.20;4.80;;;5.60;99.90;;;;;;4994900;28;20722;-78
2021/10/27 05:42:09;;;;;;;5.10;4.70;;;5.40;99.90;;;;;;4994759;28;20200;-78
2021/10/27 05:44:34;;;;;;;5.17;4.77;;;5.40;99.90;;;;;;4994990;28;20205;-78
2021/10/27 05:47:00;;;;;;;5.53;5.03;;;5.40;99.90;;;;;;4995145;28;20266;-77
2021/10/27 05:49:40;;;;;;;5.30;4.90;;;5.30;99.90;;;;;;4993505;28;20201;-79
2021/10/27 05:55:03;;;;;;;6.23;5.73;;;5.30;99.90;;;;;;4995300;28;20179;-79
2021/10/27 05:57:42;;;;;;;6.23;5.73;;;5.30;99.90;;;;;;4994927;28;20193;-77
2021/10/27 06:00:09;;;;;;;5.43;5.03;;;5.30;99.90;;;;;;4994771;28;20186;-78
2021/10/27 06:02:35;;;;;;;6.83;5.70;;;5.30;99.90;;;;;;4995146;28;20672;-77
2021/10/27 06:05:01;;;;;;;7.23;6.63;;;5.20;99.90;;;;;;4994843;28;20205;-78
2021/10/27 06:07:27;;;;;;;6.83;6.23;;;5.30;99.90;;;;;;4991137;28;20179;-79
2021/10/27 06:09:55;;;;;;;6.47;5.97;;;5.30;99.90;;;;;;5006464;28;20178;-76
2021/10/27 06:12:21;;;;;;;6.80;6.20;;;5.20;99.90;;;;;;4992212;28;20177;-77
2021/10/27 06:14:46;;;;;;;6.50;5.63;;;5.20;99.90;;;;;;4993143;28;20198;-77
2021/10/27 06:17:12;;;;;;;6.57;5.97;;;5.30;99.90;;;;;;4994125;28;20188;-78
2021/10/27 06:19:39;;;;;;;6.67;6.07;;;5.20;99.90;;;;;;4992940;28;20186;-79
2021/10/27 06:22:05;;;;;;;6.47;5.87;;;5.30;99.90;;;;;;4993189;28;20331;-79
2021/10/27 06:24:31;;;;;;;7.30;6.60;;;5.20;99.90;;;;;;4994493;28;20241;-77
2021/10/27 06:26:58;;;;;;;6.30;5.70;;;5.20;99.90;;;;;;4994398;28;20255;-77
2021/10/27 06:29:42;;;;;;;6.27;5.67;;;5.20;99.90;;;;;;4993367;28;20185;-78
2021/10/27 06:34:40;;;;;;;5.80;5.30;;;5.20;99.90;;;;;;4994338;28;20211;-77
2021/10/27 06:45:58;;;;;;;5.77;5.37;;;5.20;99.90;;;;;;4994914;28;20326;-78
2021/10/27 06:48:10;;;;;;;6.10;5.50;;;5.10;99.90;;;;;;4993570;28;20557;-78
2021/10/27 06:50:35;;;;;;;8.00;5.97;;;5.20;99.90;;;;;;4992984;28;20188;-78
2021/10/27 06:53:01;;;;;;;7.70;5.80;;;5.20;99.90;;;;;;4994152;28;20189;-78
2021/10/27 06:55:27;;;;;;;6.80;6.07;;;5.20;99.90;;;;;;4994024;28;20205;-78
2021/10/27 06:57:54;;;;;;;7.10;6.50;;;5.20;99.90;;;;;;4992529;28;20667;-78
2021/10/27 07:00:34;;;;;;;8.17;6.87;;;5.20;99.90;;;;;;4993218;28;20547;-77
2021/10/27 07:16:06;;;;;;;7.00;6.30;;;5.40;99.90;;;;;;4993838;28;20353;-78
2021/10/27 07:18:33;;;;;;;7.23;6.13;;;5.50;99.90;;;;;;4993646;28;20186;-77
2021/10/27 07:20:59;;;;;;;10.47;6.83;;;5.50;99.90;;;;;;4993530;28;20185;-78
2021/10/27 07:23:25;;;;;;;7.43;6.60;;;5.50;99.90;;;;;;4994015;28;20176;-78
2021/10/27 07:25:58;;;;;;;6.83;6.23;;;5.60;99.90;;;;;;4993460;28;20294;-77
2021/10/27 07:28:29;;;;;;;8.57;6.50;;;5.70;99.90;;;;;;4996144;28;20273;-77
2021/10/27 07:30:57;;;;;;;10.97;6.63;;;5.70;99.90;;;;;;4997531;28;20174;-78
2021/10/27 07:33:24;;;;;;;15.53;8.00;;;5.80;99.90;;;;;;4996439;28;20186;-78
2021/10/27 07:41:29;;;;;;;22.40;10.13;;;5.90;99.90;;;;;;4995713;28;20554;-76
2021/10/27 07:43:57;;;;;;;16.40;9.90;;;6.00;99.90;;;;;;4997499;28;20204;-77
2021/10/27 07:46:23;;;;;;;17.93;9.57;;;6.00;99.90;;;;;;4997059;28;20198;-77
2021/10/27 07:48:49;;;;;;;17.47;10.63;;;6.10;99.90;;;;;;4995774;28;20217;-79
2021/10/27 07:51:14;;;;;;;24.93;10.70;;;6.20;99.90;;;;;;4997537;28;20196;-77
2021/10/27 07:53:40;;;;;;;25.50;11.53;;;6.10;99.90;;;;;;4996097;28;20179;-78
2021/10/27 07:56:06;;;;;;;23.90;11.40;;;6.20;99.90;;;;;;4996915;28;20198;-79
2021/10/27 07:58:32;;;;;;;30.70;12.20;;;6.30;99.90;;;;;;4989567;28;20730;-77
2021/10/27 08:00:59;;;;;;;33.13;13.67;;;6.30;99.90;;;;;;4991096;28;20182;-77
2021/10/27 08:03:28;;;;;;;38.17;16.07;;;6.30;99.90;;;;;;4997011;28;20174;-79
2021/10/27 08:05:56;;;;;;;36.30;14.93;;;6.40;99.90;;;;;;4996916;28;20215;-77
2021/10/27 08:08:22;;;;;;;35.87;16.13;;;6.50;99.90;;;;;;4996971;28;20187;-79
2021/10/27 08:10:50;;;;;;;42.50;18.93;;;6.50;99.90;;;;;;4994830;28;20269;-78
2021/10/27 08:13:16;;;;;;;46.67;18.37;;;6.60;99.90;;;;;;4995638;28;20174;-77
2021/10/27 08:15:42;;;;;;;43.77;17.20;;;6.70;99.90;;;;;;4995828;28;20277;-77
2021/10/27 08:18:10;;;;;;;48.43;17.97;;;6.70;99.90;;;;;;4996511;28;20646;-79
2021/10/27 08:20:36;;;;;;;49.43;18.43;;;6.60;99.90;;;;;;4996785;28;20549;-77
2021/10/27 08:23:04;;;;;;;59.87;20.40;;;6.70;99.90;;;;;;4996658;28;20261;-78
2021/10/27 08:25:32;;;;;;;63.77;24.10;;;7.00;99.90;;;;;;4982317;28;20703;-76
2021/10/27 08:28:07;;;;;;;69.17;26.17;;;6.70;99.90;;;;;;4995134;28;20531;-77
2021/10/27 08:30:42;;;;;;;66.13;25.17;;;6.70;99.90;;;;;;4995547;28;20169;-78
2021/10/27 08:33:08;;;;;;;64.40;23.47;;;6.80;99.90;;;;;;4995378;28;20231;-79
2021/10/27 08:35:36;;;;;;;61.47;24.90;;;6.90;99.90;;;;;;4995744;28;20289;-77
2021/10/27 08:38:03;;;;;;;70.87;26.57;;;7.00;99.90;;;;;;4996318;28;20181;-78
2021/10/27 08:40:29;;;;;;;63.47;26.20;;;7.00;99.90;;;;;;4995250;28;20180;-77
2021/10/27 08:42:57;;;;;;;64.07;25.07;;;7.00;99.90;;;;;;4996501;28;20638;-78
2021/10/27 08:45:24;;;;;;;52.23;23.30;;;7.10;99.90;;;;;;4996549;28;20669;-78
2021/10/27 08:47:52;;;;;;;52.67;23.40;;;7.10;99.90;;;;;;4994915;28;20225;-77
2021/10/27 08:50:20;;;;;;;48.23;23.03;;;7.10;99.90;;;;;;4996482;28;20176;-78
2021/10/27 08:52:46;;;;;;;44.97;22.30;;;7.20;99.90;;;;;;4996431;28;20639;-78
2021/10/27 08:55:14;;;;;;;43.50;24.20;;;7.20;99.90;;;;;;4996488;28;20241;-78
2021/10/27 08:57:43;;;;;;;40.60;21.63;;;7.30;99.90;;;;;;4996901;28;20755;-77
2021/10/27 09:00:23;;;;;;;41.17;22.03;;;7.40;99.90;;;;;;4994032;28;20184;-79
2021/10/27 09:02:59;;;;;;;43.00;23.43;;;7.40;99.90;;;;;;4995125;28;20186;-79
2021/10/27 09:16:38;;;;;;;31.50;22.30;;;7.70;99.90;;;;;;4995869;28;20229;-79
2021/10/27 10:06:32;;;;;;;40.67;26.43;;;9.20;99.90;;;;;;4979039;28;20746;-79
2021/10/27 10:08:59;;;;;;;46.03;25.90;;;;;;;;;;4984985;28;20202;-80
2021/10/27 10:11:26;;;;;;;37.13;25.20;;;9.50;99.90;;;;;;4999889;28;20201;-79
2021/10/27 10:13:58;;;;;;;31.33;22.90;;;9.60;99.90;;;;;;5000114;28;20770;-78
2021/10/27 10:16:25;;;;;;;31.80;22.73;;;9.60;99.90;;;;;;4999641;28;20175;-79
2021/10/27 10:18:51;;;;;;;35.73;24.53;;;9.70;99.90;;;;;;5000267;28;20164;-78
2021/10/27 10:21:26;;;;;;;33.07;24.00;;;9.80;99.90;;;;;;5000712;28;20196;-80
2021/10/27 10:24:12;;;;;;;29.90;22.60;;;;;;;;;;4994248;28;20171;-80
2021/10/27 10:26:39;;;;;;;26.60;20.23;;;10.10;99.90;;;;;;4989638;28;20183;-79
2021/10/27 10:29:05;;;;;;;26.50;20.17;;;10.40;99.90;;;;;;4997632;28;20262;-79
2021/10/27 10:31:36;;;;;;;26.70;20.03;;;10.50;99.90;;;;;;4998231;28;20239;-79
2021/10/27 10:34:09;;;;;;;25.13;19.60;;;10.60;99.90;;;;;;4999749;28;20242;-80
2021/10/27 10:36:40;;;;;;;23.27;19.33;;;10.80;99.90;;;;;;4990640;28;20177;-78
2021/10/27 11:25:44;;;;;;;14.33;12.90;;;12.40;99.90;;;;;;4986820;28;20261;-78
2021/10/27 11:42:14;;;;;;;12.57;11.43;;;12.70;99.90;;;;;;5000054;28;20292;-83
2021/10/27 11:44:49;;;;;;;11.53;10.47;;;12.80;99.90;;;;;;5002079;28;20257;-82
2021/10/27 11:47:35;;;;;;;22.10;14.37;;;12.80;99.90;;;;;;4997883;28;20178;-80
2021/10/27 11:50:05;;;;;;;28.60;15.97;;;12.90;99.90;;;;;;5001817;28;20206;-81
2021/10/27 11:52:33;;;;;;;19.77;14.80;;;12.90;99.90;;;;;;4998307;28;20202;-81
2021/10/27 11:55:00;;;;;;;14.47;11.50;;;13.00;99.90;;;;;;4997148;28;20187;-79
2021/10/27 11:57:30;;;;;;;17.60;10.30;;;13.00;99.90;;;;;;4995121;28;20183;-81
2021/10/27 11:59:56;;;;;;;13.40;9.23;;;13.00;99.90;;;;;;4987657;28;20270;-80
2021/10/27 12:02:22;;;;;;;9.20;7.73;;;13.10;99.90;;;;;;4993726;28;20281;-79
2021/10/27 12:04:48;;;;;;;8.80;7.90;;;13.20;99.90;;;;;;4993703;28;20204;-81
2021/10/27 12:07:23;;;;;;;10.23;7.43;;;13.20;99.90;;;;;;4996478;28;20183;-79
2021/10/27 12:15:37;;;;;;;10.60;9.50;;;13.30;99.90;;;;;;4993453;28;20179;-81
2021/10/27 12:18:11;;;;;;;13.83;10.90;;;13.40;99.90;;;;;;4987411;28;20179;-80
2021/10/27 12:20:45;;;;;;;10.07;9.07;;;13.40;99.90;;;;;;4991434;28;20175;-81
2021/10/27 12:23:20;;;;;;;9.97;6.07;;;13.50;99.90;;;;;;4993143;28;20241;-81
2021/10/27 12:25:46;;;;;;;8.57;7.27;;;13.60;99.90;;;;;;4989379;28;20618;-81
2021/10/27 12:28:31;;;;;;;8.67;7.10;;;13.70;99.90;;;;;;4994697;28;20287;-81
2021/10/27 12:31:11;;;;;;;9.83;7.87;;;13.70;99.90;;;;;;4989090;28;20564;-80
2021/10/27 12:33:40;;;;;;;8.57;7.87;;;13.70;99.90;;;;;;4994036;28;20176;-81
2021/10/27 12:36:14;;;;;;;8.27;7.57;;;13.80;99.90;;;;;;4991921;28;20191;-80
2021/10/27 12:38:40;;;;;;;7.37;6.67;;;13.90;99.90;;;;;;4993970;28;20183;-81
2021/10/27 12:41:22;;;;;;;9.60;7.83;;;13.90;99.90;;;;;;4992583;28;20269;-81
2021/10/27 12:43:48;;;;;;;11.70;9.13;;;14.00;99.90;;;;;;4995071;28;20219;-80
2021/10/27 12:46:20;;;;;;;9.73;8.00;;;13.90;99.90;;;;;;4992437;28;20557;-81
2021/10/27 12:48:46;;;;;;;9.83;8.00;;;14.00;99.90;;;;;;4992354;28;20255;-81
2021/10/27 12:51:12;;;;;;;9.53;8.53;;;14.00;99.90;;;;;;4989488;28;20208;-81
2021/10/27 12:53:47;;;;;;;11.47;10.30;;;13.90;99.90;;;;;;4992310;28;20234;-81
2021/10/27 12:56:23;;;;;;;12.43;11.23;;;13.80;99.90;;;;;;4981245;28;20184;-80
2021/10/27 12:58:59;;;;;;;13.57;11.47;;;13.80;99.90;;;;;;4984091;28;20233;-82
2021/10/27 13:04:14;;;;;;;14.23;10.50;;;13.90;99.90;;;;;;4984616;28;20183;-80
2021/10/27 13:09:26;;;;;;;10.63;8.93;;;14.00;99.90;;;;;;4983065;28;20582;-80
2021/10/27 13:30:10;;;;;;;7.90;6.97;;;14.10;99.90;;;;;;4994931;28;20191;-81
2021/10/27 13:32:40;;;;;;;9.30;7.60;;;14.00;99.90;;;;;;4996606;28;20300;-81
2021/10/27 13:35:06;;;;;;;6.60;6.00;;;14.10;99.90;;;;;;4991472;28;20195;-82
2021/10/27 13:37:33;;;;;;;7.43;6.73;;;14.10;99.90;;;;;;4996148;28;20172;-81
2021/10/27 13:39:59;;;;;;;6.50;5.93;;;14.10;99.90;;;;;;4992358;28;20552;-81
2021/10/27 13:42:47;;;;;;;6.87;6.00;;;14.10;99.90;;;;;;4995812;28;20196;-80
2021/10/27 14:06:54;;;;;;;6.60;4.67;;;14.20;99.90;;;;;;4993052;28;20615;-80
2021/10/27 14:09:26;;;;;;;5.47;4.63;;;14.20;99.90;;;;;;4993242;28;20172;-79
2021/10/27 14:14:33;;;;;;;6.20;4.67;;;14.10;99.90;;;;;;4994415;28;20177;-77
2021/10/27 14:20:01;;;;;;;5.10;4.50;;;14.20;99.90;;;;;;4994911;28;20182;-81
2021/10/27 15:22:42;;;;;;;7.27;6.20;;;13.70;99.90;;;;;;5006375;28;20205;-81
2021/10/27 15:32:53;;;;;;;9.33;6.03;;;13.60;99.90;;;;;;5031668;22;20644;-81
2021/10/27 15:41:13;;;;;;;8.97;5.43;;;13.40;99.90;;;;;;5009073;28;20180;-79
2021/10/27 15:51:43;;;;;;;6.23;5.00;;;13.30;99.90;;;;;;5016301;28;20273;-80
2021/10/27 15:54:12;;;;;;;4.97;4.10;;;13.20;99.90;;;;;;5019829;28;20515;-77
2021/10/27 15:56:37;;;;;;;5.70;4.53;;;13.20;99.90;;;;;;5013496;28;20596;-81
2021/10/27 15:59:03;;;;;;;4.30;3.80;;;13.20;99.90;;;;;;5019209;28;20262;-80
2021/10/27 16:01:29;;;;;;;5.13;3.97;;;13.10;99.90;;;;;;5020025;28;20207;-79
2021/10/27 16:03:55;;;;;;;4.20;3.20;;;13.10;99.90;;;;;;5013670;28;20303;-78
2021/10/27 16:06:24;;;;;;;4.00;3.10;;;13.00;99.90;;;;;;5032906;28;20217;-79
2021/10/27 16:08:54;;;;;;;4.73;3.00;;;13.00;99.90;;;;;;5020953;28;20187;-80
2021/10/27 16:11:20;;;;;;;3.70;3.23;;;12.90;99.90;;;;;;5020081;28;20200;-79
2021/10/27 16:13:46;;;;;;;4.00;3.37;;;12.80;99.90;;;;;;5019552;28;20214;-80
2021/10/27 16:16:14;;;;;;;3.43;3.07;;;12.80;99.90;;;;;;5018606;28;20207;-80
2021/10/27 16:18:40;;;;;;;7.20;3.67;;;12.70;99.90;;;;;;5019404;28;20250;-79
2021/10/27 16:21:06;;;;;;;4.17;3.03;;;12.60;99.90;;;;;;5019125;28;20198;-80
2021/10/27 16:23:32;;;;;;;5.20;3.70;;;12.60;99.90;;;;;;5017582;28;20207;-81
2021/10/27 16:25:58;;;;;;;3.27;2.90;;;12.50;99.90;;;;;;5010962;28;20213;-83
2021/10/27 16:28:25;;;;;;;3.50;3.20;;;12.50;99.90;;;;;;5012875;28;20182;-82
2021/10/27 16:30:53;;;;;;;4.60;4.00;;;12.40;99.90;;;;;;5013947;28;20596;-83
2021/10/27 16:33:21;;;;;;;6.43;5.83;;;12.30;99.90;;;;;;5014309;28;20211;-83
2021/10/27 16:35:51;;;;;;;5.83;4.57;;;12.20;99.90;;;;;;5014441;28;20665;-81
2021/10/27 16:38:18;;;;;;;6.43;5.83;;;12.20;99.90;;;;;;5008734;28;20694;-84
2021/10/27 16:40:44;;;;;;;5.13;4.10;;;12.10;99.90;;;;;;5015718;28;20179;-84
2021/10/27 16:43:10;;;;;;;7.67;6.87;;;12.10;99.90;;;;;;5006763;28;20210;-83
2021/10/27 16:45:35;;;;;;;11.63;6.80;;;12.00;99.90;;;;;;5012035;28;20218;-83
2021/10/27 16:48:02;;;;;;;8.10;7.30;;;11.90;99.90;;;;;;5006449;28;20236;-83
2021/10/27 16:50:30;;;;;;;7.90;6.40;;;11.90;99.90;;;;;;5018569;28;20177;-84
2021/10/27 16:52:57;;;;;;;9.27;8.27;;;11.80;99.90;;;;;;5018799;28;20233;-83
2021/10/27 16:55:23;;;;;;;10.33;7.90;;;11.80;99.90;;;;;;5017739;28;20178;-83
2021/10/27 16:57:54;;;;;;;9.77;7.97;;;11.70;99.90;;;;;;5017132;28;20192;-83
2021/10/27 17:00:22;;;;;;;7.30;6.60;;;11.70;99.90;;;;;;5016866;28;20194;-83
2021/10/27 17:02:48;;;;;;;8.00;6.43;;;11.70;99.90;;;;;;5018004;28;20194;-84
2021/10/27 17:05:14;;;;;;;8.00;6.67;;;11.70;99.90;;;;;;5018317;28;20201;-84
2021/10/27 17:07:40;;;;;;;8.77;6.00;;;11.70;99.90;;;;;;5018294;28;20660;-84
2021/10/27 17:10:09;;;;;;;6.80;6.20;;;11.70;99.90;;;;;;5017154;28;20182;-84
2021/10/27 17:12:35;;;;;;;10.03;6.63;;;11.60;99.90;;;;;;5018709;28;20673;-84
2021/10/27 17:15:01;;;;;;;8.83;5.60;;;11.50;99.90;;;;;;5017289;28;20202;-84
2021/10/27 17:17:27;;;;;;;15.43;8.90;;;11.40;99.90;;;;;;5033760;28;20178;-82
2021/10/27 17:19:53;;;;;;;23.87;14.03;;;11.30;99.90;;;;;;5018834;28;20204;-84
2021/10/27 17:22:28;;;;;;;29.07;15.87;;;11.30;99.90;;;;;;5074863;28;20556;-83
2021/10/27 17:24:54;;;;;;;19.87;13.53;;;11.20;99.90;;;;;;5067692;28;20173;-83
2021/10/27 17:27:21;;;;;;;15.77;12.43;;;11.10;99.90;;;;;;5063051;28;20180;-84
2021/10/27 17:29:47;;;;;;;13.20;10.30;;;11.10;99.90;;;;;;5069721;28;20191;-84
2021/10/27 17:32:13;;;;;;;15.37;10.60;;;11.00;99.90;;;;;;5070317;28;20202;-83
2021/10/27 17:34:39;;;;;;;9.20;7.40;;;10.90;99.90;;;;;;5057525;28;20178;-84
2021/10/27 17:37:04;;;;;;;10.67;9.17;;;10.90;99.90;;;;;;5049386;28;20177;-84
2021/10/27 17:39:30;;;;;;;10.30;9.30;;;10.80;99.90;;;;;;5046650;28;20188;-84